createdAt,value
2017-08-14T00:00:44.270Z,102188.00
2017-08-14T00:03:12.618Z,102198.09
2017-08-14T00:05:40.984Z,102203.23
2017-08-14T00:08:09.893Z,102200.14
2017-08-14T00:10:38.285Z,102199.47
2017-08-14T00:13:06.635Z,102197.75
2017-08-14T00:15:35.560Z,102197.39
2017-08-14T00:18:04.145Z,102200.00
2017-08-14T00:20:32.498Z,102196.84
2017-08-14T00:23:01.390Z,102201.38
2017-08-14T00:25:29.750Z,102201.48
2017-08-14T00:27:58.863Z,102197.39
2017-08-14T00:30:27.739Z,102198.92
2017-08-14T00:32:56.082Z,102197.39
2017-08-14T00:35:24.435Z,102203.28
2017-08-14T00:37:53.327Z,102204.34
2017-08-14T00:40:21.681Z,102208.53
2017-08-14T00:42:50.037Z,102205.80
2017-08-14T00:45:18.687Z,102207.81
2017-08-14T00:47:47.054Z,102207.11
2017-08-14T00:50:15.439Z,102207.62
2017-08-14T00:52:44.399Z,102211.80
2017-08-14T00:55:12.769Z,102209.27
2017-08-14T00:57:41.672Z,102204.16
2017-08-14T01:00:10.316Z,102207.21
2017-08-14T01:02:38.695Z,102198.78
2017-08-14T01:05:07.079Z,102198.27
2017-08-14T01:07:35.753Z,102195.72
2017-08-14T01:10:04.103Z,102195.05
2017-08-14T01:12:32.469Z,102201.05
2017-08-14T01:15:01.201Z,102195.83
2017-08-14T01:17:29.569Z,102201.43
2017-08-14T01:19:57.924Z,102198.63
2017-08-14T01:22:26.625Z,102200.50
2017-08-14T01:24:54.988Z,102198.13
2017-08-14T01:27:23.330Z,102205.55
2017-08-14T01:29:52.248Z,102206.61
2017-08-14T01:32:20.594Z,102200.83
2017-08-14T01:34:49.719Z,102198.72
2017-08-14T01:37:18.638Z,102202.18
2017-08-14T01:39:47.005Z,102205.12
2017-08-14T01:42:15.356Z,102201.73
2017-08-14T01:44:44.152Z,102198.58
2017-08-14T01:47:12.524Z,102198.20
2017-08-14T01:49:40.891Z,102196.48
2017-08-14T01:52:09.560Z,102195.81
2017-08-14T01:54:37.908Z,102199.95
2017-08-14T01:57:06.257Z,102201.16
2017-08-14T01:59:35.259Z,102198.04
2017-08-14T02:02:03.724Z,102198.00
2017-08-14T02:04:32.096Z,102197.73
2017-08-14T02:07:00.802Z,102199.48
2017-08-14T02:09:29.180Z,102203.69
2017-08-14T02:11:57.541Z,102204.43
2017-08-14T02:14:26.349Z,102198.23
2017-08-14T02:16:54.708Z,102195.08
2017-08-14T02:19:23.066Z,102195.70
2017-08-14T02:21:51.757Z,102195.55
2017-08-14T02:24:20.123Z,102199.83
2017-08-14T02:26:48.516Z,102197.78
2017-08-14T02:29:17.188Z,102192.60
2017-08-14T02:31:45.540Z,102201.57
2017-08-14T02:34:13.923Z,102199.16
2017-08-14T02:36:42.582Z,102196.42
2017-08-14T02:39:10.985Z,102201.30
2017-08-14T02:41:39.338Z,102203.05
2017-08-14T02:44:08.386Z,102200.56
2017-08-14T02:46:36.761Z,102204.20
2017-08-14T02:49:05.110Z,102199.34
2017-08-14T02:51:33.754Z,102199.03
2017-08-14T02:54:02.106Z,102195.55
2017-08-14T02:56:30.690Z,102196.26
2017-08-14T02:58:59.407Z,102204.50
2017-08-14T03:01:27.856Z,102206.45
2017-08-14T03:03:56.203Z,102205.00
2017-08-14T03:06:25.108Z,102201.93
2017-08-14T03:08:53.454Z,102201.25
2017-08-14T03:11:21.811Z,102204.15
2017-08-14T03:13:50.707Z,102199.84
2017-08-14T03:16:19.047Z,102202.80
2017-08-14T03:18:47.415Z,102197.77
2017-08-14T03:21:16.094Z,102200.83
2017-08-14T03:23:44.453Z,102197.30
2017-08-14T03:26:12.799Z,102202.41
2017-08-14T03:28:41.740Z,102202.56
2017-08-14T03:31:10.099Z,102202.36
2017-08-14T03:33:38.459Z,102198.55
2017-08-14T03:36:07.100Z,102206.47
2017-08-14T03:38:35.452Z,102208.80
2017-08-14T03:41:03.813Z,102206.14
2017-08-14T03:43:32.463Z,102206.89
2017-08-14T03:46:00.834Z,102208.52
2017-08-14T03:48:29.217Z,102214.20
2017-08-14T03:50:58.376Z,102206.97
2017-08-14T03:53:26.735Z,102212.66
2017-08-14T03:55:55.074Z,102209.92
2017-08-14T03:58:23.758Z,102214.78
2017-08-14T04:00:52.141Z,102219.67
2017-08-14T04:03:20.549Z,102217.34
2017-08-14T04:05:49.402Z,102221.44
2017-08-14T04:08:17.753Z,102227.66
2017-08-14T04:10:46.125Z,102222.72
2017-08-14T04:13:15.037Z,102224.88
2017-08-14T04:15:43.419Z,102229.25
2017-08-14T04:18:11.779Z,102234.77
2017-08-14T04:20:40.600Z,102227.70
2017-08-14T04:23:08.956Z,102240.06
2017-08-14T04:25:37.331Z,102240.95
2017-08-14T04:28:06.039Z,102246.20
2017-08-14T04:30:34.379Z,102245.42
2017-08-14T04:33:02.728Z,102244.00
2017-08-14T04:35:31.647Z,102243.91
2017-08-14T04:38:00.018Z,102248.24
2017-08-14T04:40:28.356Z,102242.69
2017-08-14T04:42:57.110Z,102239.91
2017-08-14T04:45:25.459Z,102243.44
2017-08-14T04:47:53.830Z,102243.08
2017-08-14T04:50:22.558Z,102242.84
2017-08-14T04:52:50.917Z,102237.34
2017-08-14T04:55:19.268Z,102243.05
2017-08-14T04:57:48.519Z,102243.94
2017-08-14T05:00:16.878Z,102244.27
2017-08-14T05:02:45.223Z,102244.09
2017-08-14T05:05:14.639Z,102248.80
2017-08-14T05:07:43.008Z,102245.19
2017-08-14T05:10:11.399Z,102244.80
2017-08-14T05:12:40.319Z,102243.41
2017-08-14T05:15:08.692Z,102244.84
2017-08-14T05:17:37.064Z,102249.79
2017-08-14T05:20:06.184Z,102249.31
2017-08-14T05:22:34.563Z,102238.93
2017-08-14T05:25:02.920Z,102242.95
2017-08-14T05:27:31.805Z,102243.56
2017-08-14T05:30:00.177Z,102243.16
2017-08-14T05:32:28.553Z,102244.83
2017-08-14T05:34:57.352Z,102241.69
2017-08-14T05:37:25.714Z,102236.48
2017-08-14T05:39:54.060Z,102245.88
2017-08-14T05:42:22.920Z,102242.27
2017-08-14T05:44:51.259Z,102234.41
2017-08-14T05:47:19.608Z,102239.07
2017-08-14T05:49:48.287Z,102236.25
2017-08-14T05:52:16.674Z,102246.13
2017-08-14T05:54:45.026Z,102239.50
2017-08-14T05:57:13.683Z,102251.02
2017-08-14T05:59:42.050Z,102259.95
2017-08-14T06:02:10.414Z,102256.38
2017-08-14T06:04:39.212Z,102251.23
2017-08-14T06:07:07.554Z,102252.71
2017-08-14T06:09:35.922Z,102253.08
2017-08-14T06:12:04.619Z,102254.39
2017-08-14T06:14:32.984Z,102258.92
2017-08-14T06:17:01.375Z,102265.85
2017-08-14T06:19:30.020Z,102262.42
2017-08-14T06:21:58.386Z,102259.31
2017-08-14T06:24:26.741Z,102260.48
2017-08-14T06:26:55.794Z,102262.38
2017-08-14T06:29:24.166Z,102261.00
2017-08-14T06:31:52.508Z,102267.22
2017-08-14T06:34:21.284Z,102266.41
2017-08-14T06:36:49.720Z,102265.52
2017-08-14T06:39:18.040Z,102264.36
2017-08-14T06:41:46.889Z,102270.95
2017-08-14T06:44:15.242Z,102265.09
2017-08-14T06:46:44.361Z,102265.81
2017-08-14T06:49:13.120Z,102261.11
2017-08-14T06:54:09.149Z,102262.02
2017-08-14T06:56:37.960Z,102263.06
2017-08-14T06:59:06.295Z,102262.23
2017-08-14T07:01:34.646Z,102263.03
2017-08-14T07:04:03.414Z,102263.75
2017-08-14T07:06:31.746Z,102266.50
2017-08-14T07:09:00.092Z,102260.66
2017-08-14T07:11:28.930Z,102262.74
2017-08-14T07:13:57.281Z,102259.47
2017-08-14T07:16:25.638Z,102261.45
2017-08-14T07:18:54.347Z,102258.30
2017-08-14T07:21:22.718Z,102263.16
2017-08-14T07:23:51.092Z,102263.69
2017-08-14T07:26:20.301Z,102262.47
2017-08-14T07:28:48.713Z,102258.96
2017-08-14T07:31:17.860Z,102266.73
2017-08-14T07:33:46.823Z,102263.63
2017-08-14T07:36:15.200Z,102270.05
2017-08-14T07:38:44.285Z,102258.48
2017-08-14T07:41:13.928Z,102265.22
2017-08-14T07:43:42.255Z,102261.55
2017-08-14T07:46:10.598Z,102262.97
2017-08-14T07:48:39.559Z,102258.23
2017-08-14T07:51:07.917Z,102254.48
2017-08-14T07:53:37.041Z,102259.20
2017-08-14T07:56:05.899Z,102260.63
2017-08-14T07:58:34.257Z,102253.80
2017-08-14T08:01:02.631Z,102253.27
2017-08-14T08:03:31.490Z,102257.70
2017-08-14T08:05:59.845Z,102253.87
2017-08-14T08:08:28.975Z,102255.11
2017-08-14T08:10:57.649Z,102251.45
2017-08-14T08:13:25.996Z,102247.00
2017-08-14T08:15:54.338Z,102254.15
2017-08-14T08:18:23.397Z,102258.79
2017-08-14T08:20:51.756Z,102253.87
2017-08-14T08:23:20.160Z,102248.35
2017-08-14T08:25:48.862Z,102252.22
2017-08-14T08:28:17.222Z,102254.41
2017-08-14T08:30:45.622Z,102252.81
2017-08-14T08:33:14.361Z,102250.69
2017-08-14T08:35:43.485Z,102262.57
2017-08-14T08:38:12.679Z,102255.96
2017-08-14T08:40:41.575Z,102254.86
2017-08-14T08:43:09.930Z,102247.94
2017-08-14T08:45:39.022Z,102249.61
2017-08-14T08:48:07.844Z,102245.16
2017-08-14T08:50:36.199Z,102250.69
2017-08-14T08:53:04.551Z,102251.33
2017-08-14T08:55:33.230Z,102245.89
2017-08-14T08:58:01.614Z,102243.88
2017-08-14T09:00:29.974Z,102242.24
2017-08-14T09:02:58.928Z,102242.09
2017-08-14T09:05:27.307Z,102236.41
2017-08-14T09:07:55.661Z,102241.69
2017-08-14T09:10:24.380Z,102238.50
2017-08-14T09:12:52.802Z,102234.52
2017-08-14T09:15:21.179Z,102225.42
2017-08-14T09:17:50.037Z,102224.61
2017-08-14T09:20:18.384Z,102220.20
2017-08-14T09:22:47.510Z,102219.75
2017-08-14T09:25:16.341Z,102211.95
2017-08-14T09:27:44.713Z,102210.73
2017-08-14T09:30:13.057Z,102211.06
2017-08-14T09:32:41.682Z,102211.63
2017-08-14T09:35:10.030Z,102213.75
2017-08-14T09:37:38.391Z,102209.95
2017-08-14T09:40:07.075Z,102209.46
2017-08-14T09:42:35.449Z,102208.27
2017-08-14T09:45:03.792Z,102202.67
2017-08-14T09:47:32.522Z,102203.20
2017-08-14T09:50:00.890Z,102205.59
2017-08-14T09:52:29.265Z,102201.30
2017-08-14T09:54:58.812Z,102193.80
2017-08-14T09:57:27.190Z,102193.53
2017-08-14T09:59:55.538Z,102197.55
2017-08-14T10:02:24.244Z,102192.16
2017-08-14T10:04:52.599Z,102187.06
2017-08-14T10:07:20.992Z,102181.03
2017-08-14T10:09:49.983Z,102174.55
2017-08-14T10:12:18.365Z,102170.09
2017-08-14T10:14:46.780Z,102178.19
2017-08-14T10:17:15.463Z,102171.18
2017-08-14T10:19:43.860Z,102172.17
2017-08-14T10:22:12.212Z,102163.05
2017-08-14T10:24:41.077Z,102168.20
2017-08-14T10:27:09.473Z,102169.23
2017-08-14T10:29:37.851Z,102175.89
2017-08-14T10:32:06.958Z,102168.56
2017-08-14T10:34:35.322Z,102165.72
2017-08-14T10:37:03.678Z,102172.69
2017-08-14T10:39:32.337Z,102166.03
2017-08-14T10:42:00.682Z,102164.76
2017-08-14T10:44:29.035Z,102161.33
2017-08-14T10:46:57.686Z,102150.89
2017-08-14T10:49:26.017Z,102147.42
2017-08-14T10:51:54.367Z,102152.58
2017-08-14T10:54:23.311Z,102152.50
2017-08-14T10:56:51.670Z,102143.80
2017-08-14T10:59:20.074Z,102140.39
2017-08-14T11:01:49.328Z,102149.27
2017-08-14T11:04:17.711Z,102148.89
2017-08-14T11:06:46.087Z,102139.02
2017-08-14T11:09:14.975Z,102137.94
2017-08-14T11:11:43.333Z,102138.17
2017-08-14T11:14:12.451Z,102138.80
2017-08-14T11:16:41.199Z,102137.48
2017-08-14T11:19:09.566Z,102132.69
2017-08-14T11:21:37.951Z,102138.00
2017-08-14T11:24:06.686Z,102131.25
2017-08-14T11:26:35.072Z,102125.18
2017-08-14T11:29:03.527Z,102126.58
2017-08-14T11:31:32.959Z,102122.59
2017-08-14T11:34:01.352Z,102124.00
2017-08-14T11:36:29.760Z,102127.62
2017-08-14T11:38:58.779Z,102121.20
2017-08-14T11:41:27.161Z,102115.44
2017-08-14T11:43:55.536Z,102119.80
2017-08-14T11:46:24.460Z,102123.40
2017-08-14T11:48:52.824Z,102111.73
2017-08-14T11:51:21.183Z,102110.90
2017-08-14T11:53:50.143Z,102108.27
2017-08-14T11:56:18.473Z,102112.88
2017-08-14T11:58:46.848Z,102105.36
2017-08-14T12:01:15.649Z,102106.91
2017-08-14T12:03:44.038Z,102109.33
2017-08-14T12:06:12.509Z,102108.50
2017-08-14T12:08:41.196Z,102107.50
2017-08-14T12:11:09.562Z,102104.03
2017-08-14T12:13:38.774Z,102092.89
2017-08-14T12:16:07.441Z,102100.80
2017-08-14T12:18:35.780Z,102098.27
2017-08-14T12:21:04.176Z,102097.17
2017-08-14T12:23:33.094Z,102096.05
2017-08-14T12:26:01.453Z,102094.72
2017-08-14T12:28:29.825Z,102091.17
2017-08-14T12:30:58.500Z,102086.78
2017-08-14T12:33:26.872Z,102085.14
2017-08-14T12:35:55.235Z,102081.42
2017-08-14T12:38:24.034Z,102085.59
2017-08-14T12:40:52.402Z,102077.69
2017-08-14T12:43:20.801Z,102074.92
2017-08-14T12:45:49.663Z,102075.98
2017-08-14T12:48:18.021Z,102073.73
2017-08-14T12:50:46.362Z,102079.37
2017-08-14T12:53:15.100Z,102087.67
2017-08-14T12:55:43.456Z,102074.17
2017-08-14T12:58:12.553Z,102068.84
2017-08-14T13:00:42.010Z,102063.36
2017-08-14T13:03:10.394Z,102059.89
2017-08-14T13:05:38.787Z,102066.77
2017-08-14T13:08:07.626Z,102067.56
2017-08-14T13:10:35.987Z,102059.22
2017-08-14T13:13:04.373Z,102065.11
2017-08-14T13:15:33.011Z,102057.84
2017-08-14T13:18:01.375Z,102063.45
2017-08-14T13:20:29.726Z,102062.50
2017-08-14T13:23:01.446Z,102058.67
2017-08-14T13:25:29.790Z,102059.88
2017-08-14T13:27:58.177Z,102050.70
2017-08-14T13:30:26.967Z,102052.70
2017-08-14T13:32:55.338Z,102050.31
2017-08-14T13:35:23.712Z,102049.22
2017-08-14T13:37:52.478Z,102048.81
2017-08-14T13:40:20.843Z,102044.69
2017-08-14T13:42:49.222Z,102047.30
2017-08-14T13:45:17.918Z,102042.09
2017-08-14T13:47:46.266Z,102034.05
2017-08-14T13:50:14.621Z,102032.95
2017-08-14T13:52:43.762Z,102034.75
2017-08-14T13:55:12.122Z,102023.30
2017-08-14T13:57:40.472Z,102028.02
2017-08-14T14:00:09.235Z,102021.28
2017-08-14T14:02:37.603Z,102022.52
2017-08-14T14:05:06.016Z,102016.06
2017-08-14T14:07:34.798Z,102012.59
2017-08-14T14:10:03.232Z,102012.11
2017-08-14T14:12:31.623Z,102006.93
2017-08-14T14:15:00.917Z,101999.29
2017-08-14T14:17:29.301Z,102001.57
2017-08-14T14:19:57.682Z,101994.66
2017-08-14T14:22:26.412Z,101990.25
2017-08-14T14:24:54.759Z,102004.13
2017-08-14T14:27:23.122Z,101997.43
2017-08-14T14:29:51.824Z,101989.33
2017-08-14T14:32:20.167Z,101988.83
2017-08-14T14:34:49.316Z,101985.44
2017-08-14T14:37:18.288Z,101994.27
2017-08-14T14:39:46.635Z,101987.56
2017-08-14T14:42:15.009Z,101983.77
2017-08-14T14:44:43.938Z,101984.94
2017-08-14T14:47:12.284Z,101987.00
2017-08-14T14:49:40.661Z,101979.84
2017-08-14T14:52:09.388Z,101980.30
2017-08-14T14:54:37.736Z,101976.81
2017-08-14T14:57:06.843Z,101971.69
2017-08-14T14:59:35.616Z,101967.80
2017-08-14T15:02:03.956Z,101968.60
2017-08-14T15:04:32.336Z,101964.59
2017-08-14T15:07:00.976Z,101958.36
2017-08-14T15:09:29.334Z,101968.52
2017-08-14T15:11:57.682Z,101960.45
2017-08-14T15:14:26.553Z,101960.09
2017-08-14T15:16:54.936Z,101959.60
2017-08-14T15:19:23.325Z,101955.48
2017-08-14T15:21:52.267Z,101948.49
2017-08-14T15:24:21.433Z,101960.38
2017-08-14T15:26:49.832Z,101952.41
2017-08-14T15:29:18.521Z,101942.37
2017-08-14T15:31:46.908Z,101940.88
2017-08-14T15:34:15.272Z,101942.05
2017-08-14T15:36:43.938Z,101939.34
2017-08-14T15:39:12.309Z,101937.30
2017-08-14T15:41:40.699Z,101938.72
2017-08-14T15:44:09.557Z,101932.55
2017-08-14T15:46:37.937Z,101942.91
2017-08-14T15:49:06.325Z,101938.67
2017-08-14T15:51:34.963Z,101936.72
2017-08-14T15:54:03.306Z,101939.16
2017-08-14T15:56:31.684Z,101931.23
2017-08-14T15:59:00.473Z,101931.87
2017-08-14T16:01:28.843Z,101930.43
2017-08-14T16:03:57.166Z,101926.53
2017-08-14T16:06:26.016Z,101928.25
2017-08-14T16:08:54.363Z,101925.06
2017-08-14T16:11:22.701Z,101927.87
2017-08-14T16:13:51.323Z,101925.08
2017-08-14T16:16:19.676Z,101918.94
2017-08-14T16:18:48.808Z,101914.83
2017-08-14T16:21:17.573Z,101910.49
2017-08-14T16:23:45.927Z,101921.27
2017-08-14T16:26:14.277Z,101919.54
2017-08-14T16:28:43.364Z,101918.94
2017-08-14T16:31:11.753Z,101912.81
2017-08-14T16:33:40.147Z,101913.05
2017-08-14T16:36:08.938Z,101906.65
2017-08-14T16:38:37.338Z,101912.48
2017-08-14T16:41:05.707Z,101903.12
2017-08-14T16:43:34.396Z,101905.95
2017-08-14T16:46:02.830Z,101901.45
2017-08-14T16:48:31.207Z,101904.91
2017-08-14T16:51:00.335Z,101906.08
2017-08-14T16:53:28.735Z,101894.98
2017-08-14T16:55:57.096Z,101886.55
2017-08-14T16:58:25.913Z,101883.96
2017-08-14T17:00:54.291Z,101875.27
2017-08-14T17:03:23.067Z,101865.69
2017-08-14T17:05:51.802Z,101875.55
2017-08-14T17:08:20.157Z,101878.25
2017-08-14T17:10:48.497Z,101873.10
2017-08-14T17:13:17.487Z,101867.73
2017-08-14T17:15:45.931Z,101875.97
2017-08-14T17:18:14.330Z,101868.92
2017-08-14T17:20:43.015Z,101874.82
2017-08-14T17:23:11.394Z,101868.46
2017-08-14T17:25:39.853Z,101874.96
2017-08-14T17:28:08.654Z,101877.19
2017-08-14T17:30:37.038Z,101881.09
2017-08-14T17:33:05.417Z,101878.51
2017-08-14T17:35:34.315Z,101876.00
2017-08-14T17:38:02.686Z,101871.53
2017-08-14T17:40:31.045Z,101874.11
2017-08-14T17:42:59.952Z,101874.22
2017-08-14T17:45:28.337Z,101875.91
2017-08-14T17:47:56.727Z,101875.76
2017-08-14T17:50:25.738Z,101878.17
2017-08-14T17:52:54.110Z,101875.64
2017-08-14T17:55:22.507Z,101875.31
2017-08-14T17:57:51.908Z,101884.45
2017-08-14T18:00:21.079Z,101878.02
2017-08-14T18:02:49.447Z,101876.67
2017-08-14T18:05:18.364Z,101882.31
2017-08-14T18:07:46.805Z,101871.91
2017-08-14T18:10:15.157Z,101874.11
2017-08-14T18:12:44.007Z,101875.07
2017-08-14T18:15:12.429Z,101875.64
2017-08-14T18:17:40.889Z,101875.67
2017-08-14T18:20:09.857Z,101876.38
2017-08-14T18:22:38.223Z,101869.88
2017-08-14T18:25:06.629Z,101869.37
2017-08-14T18:27:35.492Z,101869.20
2017-08-14T18:30:03.861Z,101864.84
2017-08-14T18:32:32.233Z,101873.32
2017-08-14T18:35:00.952Z,101876.77
2017-08-14T18:37:29.414Z,101874.91
2017-08-14T18:39:58.033Z,101871.79
2017-08-14T18:42:26.933Z,101869.15
2017-08-14T18:44:55.335Z,101864.36
2017-08-14T18:47:24.503Z,101867.91
2017-08-14T18:49:53.454Z,101867.95
2017-08-14T18:52:21.904Z,101865.75
2017-08-14T18:54:50.257Z,101863.45
2017-08-14T18:57:19.118Z,101868.80
2017-08-14T18:59:47.485Z,101876.28
2017-08-14T19:02:16.517Z,101883.96
2017-08-14T19:04:45.394Z,101879.37
2017-08-14T19:07:13.864Z,101883.16
2017-08-14T19:09:43.601Z,101878.03
2017-08-14T19:12:10.993Z,101883.92
2017-08-14T19:14:39.359Z,101879.99
2017-08-14T19:17:07.709Z,101884.39
2017-08-14T19:19:36.429Z,101885.92
2017-08-14T19:22:04.794Z,101882.88
2017-08-14T19:24:33.210Z,101882.44
2017-08-14T19:27:02.373Z,101875.61
2017-08-14T19:29:30.792Z,101879.22
2017-08-14T19:31:59.170Z,101880.86
2017-08-14T19:34:28.809Z,101879.03
2017-08-14T19:36:57.176Z,101876.29
2017-08-14T19:39:25.545Z,101877.58
2017-08-14T19:41:54.482Z,101877.69
2017-08-14T19:44:22.850Z,101873.77
2017-08-14T19:46:51.241Z,101878.30
2017-08-14T19:49:20.362Z,101879.28
2017-08-14T19:51:48.766Z,101871.25
2017-08-14T19:54:17.487Z,101878.91
2017-08-14T19:56:46.329Z,101877.97
2017-08-14T19:59:14.704Z,101880.62
2017-08-14T20:01:43.077Z,101879.77
2017-08-14T20:04:12.040Z,101883.81
2017-08-14T20:06:40.464Z,101878.14
2017-08-14T20:09:08.839Z,101884.64
2017-08-14T20:11:38.483Z,101876.34
2017-08-14T20:14:06.844Z,101880.62
2017-08-14T20:16:35.991Z,101885.17
2017-08-14T20:19:04.689Z,101880.52
2017-08-14T20:21:33.075Z,101879.98
2017-08-14T20:24:01.470Z,101878.49
2017-08-14T20:26:30.139Z,101882.86
2017-08-14T20:28:58.503Z,101885.50
2017-08-14T20:31:26.849Z,101888.69
2017-08-14T20:33:55.844Z,101887.84
2017-08-14T20:36:24.199Z,101875.31
2017-08-14T20:38:53.646Z,101882.42
2017-08-14T20:41:22.529Z,101880.41
2017-08-14T20:43:50.898Z,101874.35
2017-08-14T20:46:19.277Z,101866.19
2017-08-14T20:48:48.029Z,101871.03
2017-08-14T20:51:16.410Z,101865.95
2017-08-14T20:53:44.785Z,101863.93
2017-08-14T20:56:13.606Z,101860.13
2017-08-14T20:58:41.990Z,101859.73
2017-08-14T21:01:10.399Z,101854.74
2017-08-14T21:03:39.314Z,101859.70
2017-08-14T21:06:07.696Z,101859.28
2017-08-14T21:08:36.626Z,101856.82
2017-08-14T21:11:05.279Z,101862.47
2017-08-14T21:13:33.631Z,101858.98
2017-08-14T21:16:02.003Z,101857.41
2017-08-14T21:18:31.207Z,101851.58
2017-08-14T21:20:59.576Z,101852.16
2017-08-14T21:23:27.953Z,101849.08
2017-08-14T21:25:56.830Z,101848.70
2017-08-14T21:28:25.233Z,101845.49
2017-08-14T21:30:53.622Z,101845.30
2017-08-14T21:33:22.296Z,101844.22
2017-08-14T21:35:50.656Z,101845.32
2017-08-14T21:38:19.020Z,101838.61
2017-08-14T21:40:47.957Z,101838.49
2017-08-14T21:43:16.316Z,101844.25
2017-08-14T21:45:44.694Z,101849.14
2017-08-14T21:48:13.396Z,101851.34
2017-08-14T21:50:41.775Z,101849.98
2017-08-14T21:53:10.213Z,101851.67
2017-08-14T21:55:39.942Z,101853.67
2017-08-14T21:58:08.305Z,101845.16
2017-08-14T22:00:36.642Z,101848.92
2017-08-14T22:03:05.480Z,101854.80
2017-08-14T22:05:33.955Z,101850.24
2017-08-14T22:08:02.352Z,101846.86
2017-08-14T22:10:31.566Z,101848.66
2017-08-14T22:13:00.015Z,101851.44
2017-08-14T22:15:28.554Z,101845.95
2017-08-14T22:17:58.308Z,101847.64
2017-08-14T22:20:26.691Z,101849.67
2017-08-14T22:22:55.026Z,101844.65
2017-08-14T22:25:23.717Z,101843.18
2017-08-14T22:27:52.757Z,101838.64
2017-08-14T22:30:23.548Z,101841.33
2017-08-14T22:32:52.843Z,101845.61
2017-08-14T22:35:21.744Z,101841.98
2017-08-14T22:37:50.609Z,101841.52
2017-08-14T22:40:20.588Z,101833.09
2017-08-14T22:42:49.241Z,101842.91
2017-08-14T22:45:20.401Z,101839.53
2017-08-14T22:47:50.147Z,101835.67
2017-08-14T22:50:18.521Z,101834.17
2017-08-14T22:52:46.875Z,101825.99
2017-08-14T22:55:16.303Z,101825.95
2017-08-14T22:57:44.667Z,101824.60
2017-08-14T23:00:13.807Z,101823.56
2017-08-14T23:02:42.452Z,101822.57
2017-08-14T23:05:10.840Z,101821.31
2017-08-14T23:07:39.258Z,101809.31
2017-08-14T23:10:08.223Z,101807.90
2017-08-14T23:12:36.598Z,101809.19
2017-08-14T23:15:04.961Z,101801.68
2017-08-14T23:17:33.683Z,101796.59
2017-08-14T23:20:02.054Z,101795.36
2017-08-14T23:22:30.480Z,101793.50
2017-08-14T23:24:59.339Z,101788.80
2017-08-14T23:27:27.696Z,101782.97
2017-08-14T23:29:56.071Z,101777.38
2017-08-14T23:32:25.228Z,101775.99
2017-08-14T23:34:53.598Z,101775.27
2017-08-14T23:37:21.985Z,101774.03
2017-08-14T23:39:51.680Z,101771.27
2017-08-14T23:42:20.094Z,101763.95
2017-08-14T23:44:48.491Z,101762.80
2017-08-14T23:47:17.727Z,101759.19
2017-08-14T23:49:46.097Z,101754.20
2017-08-14T23:52:14.452Z,101751.52
2017-08-14T23:54:43.359Z,101754.38
2017-08-14T23:57:11.777Z,101753.24
2017-08-14T23:59:40.154Z,101750.80
